sensor_id;sensor_type;location;lat;lon;timestamp;P1;durP1;ratioP1;P2;durP2;ratioP2
43813;SDS011;29669;55.706;37.656;2023-08-06T02:40:18;13.57;;;7.57;;
43813;SDS011;29669;55.706;37.656;2023-08-06T03:14:48;14.43;;;7.90;;
43813;SDS011;29669;55.706;37.656;2023-08-06T03:17:16;16.42;;;7.95;;
43813;SDS011;29669;55.706;37.656;2023-08-06T03:29:33;15.68;;;7.82;;
43813;SDS011;29669;55.706;37.656;2023-08-06T03:32:56;14.60;;;7.55;;
43813;SDS011;29669;55.706;37.656;2023-08-06T03:35:38;15.13;;;10.00;;
43813;SDS011;29669;55.706;37.656;2023-08-06T03:38:32;19.60;;;7.95;;
43813;SDS011;29669;55.706;37.656;2023-08-06T03:41:04;12.48;;;8.00;;
43813;SDS011;29669;55.706;37.656;2023-08-06T03:43:32;14.77;;;7.78;;
43813;SDS011;29669;55.706;37.656;2023-08-06T03:46:05;13.85;;;7.80;;
43813;SDS011;29669;55.706;37.656;2023-08-06T03:48:33;11.35;;;7.53;;
43813;SDS011;29669;55.706;37.656;2023-08-06T03:51:05;11.38;;;8.15;;
43813;SDS011;29669;55.706;37.656;2023-08-06T03:53:33;14.73;;;8.90;;
43813;SDS011;29669;55.706;37.656;2023-08-06T03:56:02;14.63;;;7.85;;
43813;SDS011;29669;55.706;37.656;2023-08-06T03:58:31;9.93;;;7.80;;
43813;SDS011;29669;55.706;37.656;2023-08-06T04:00:59;13.30;;;7.28;;
43813;SDS011;29669;55.706;37.656;2023-08-06T04:03:50;13.05;;;7.25;;
43813;SDS011;29669;55.706;37.656;2023-08-06T04:06:23;9.05;;;6.53;;
43813;SDS011;29669;55.706;37.656;2023-08-06T04:08:53;14.48;;;7.82;;
43813;SDS011;29669;55.706;37.656;2023-08-06T04:11:23;14.25;;;6.72;;
43813;SDS011;29669;55.706;37.656;2023-08-06T04:13:53;17.65;;;7.53;;
43813;SDS011;29669;55.706;37.656;2023-08-06T04:16:25;11.38;;;7.22;;
43813;SDS011;29669;55.706;37.656;2023-08-06T04:18:58;11.48;;;8.13;;
43813;SDS011;29669;55.706;37.656;2023-08-06T04:21:28;11.68;;;7.18;;
43813;SDS011;29669;55.706;37.656;2023-08-06T04:23:56;13.57;;;7.20;;
43813;SDS011;29669;55.706;37.656;2023-08-06T04:26:24;12.50;;;6.50;;
43813;SDS011;29669;55.706;37.656;2023-08-06T04:28:52;11.57;;;7.07;;
43813;SDS011;29669;55.706;37.656;2023-08-06T04:31:54;20.55;;;7.53;;
43813;SDS011;29669;55.706;37.656;2023-08-06T04:34:56;15.10;;;7.43;;
43813;SDS011;29669;55.706;37.656;2023-08-06T04:37:38;17.38;;;9.10;;
43813;SDS011;29669;55.706;37.656;2023-08-06T04:40:29;11.23;;;7.10;;
43813;SDS011;29669;55.706;37.656;2023-08-06T04:44:09;13.18;;;8.05;;
43813;SDS011;29669;55.706;37.656;2023-08-06T04:47:25;12.50;;;7.20;;
43813;SDS011;29669;55.706;37.656;2023-08-06T04:55:37;12.65;;;6.82;;
43813;SDS011;29669;55.706;37.656;2023-08-06T04:58:47;12.60;;;7.15;;
43813;SDS011;29669;55.706;37.656;2023-08-06T05:01:33;13.73;;;7.03;;
43813;SDS011;29669;55.706;37.656;2023-08-06T05:04:27;14.43;;;7.22;;
43813;SDS011;29669;55.706;37.656;2023-08-06T05:07:45;13.75;;;7.63;;
43813;SDS011;29669;55.706;37.656;2023-08-06T05:11:44;11.20;;;7.20;;
43813;SDS011;29669;55.706;37.656;2023-08-06T13:24:17;9.48;;;4.22;;
43813;SDS011;29669;55.706;37.656;2023-08-06T13:26:45;6.90;;;4.47;;
43813;SDS011;29669;55.706;37.656;2023-08-06T13:30:29;12.45;;;5.10;;
43813;SDS011;29669;55.706;37.656;2023-08-06T13:34:43;5.95;;;4.15;;
43813;SDS011;29669;55.706;37.656;2023-08-06T13:56:41;7.22;;;4.53;;
43813;SDS011;29669;55.706;37.656;2023-08-06T13:59:09;5.90;;;5.00;;
43813;SDS011;29669;55.706;37.656;2023-08-06T14:01:40;9.15;;;5.25;;
43813;SDS011;29669;55.706;37.656;2023-08-06T14:04:17;7.25;;;4.68;;
43813;SDS011;29669;55.706;37.656;2023-08-06T14:07:01;6.72;;;5.13;;
43813;SDS011;29669;55.706;37.656;2023-08-06T14:09:42;6.25;;;4.88;;
43813;SDS011;29669;55.706;37.656;2023-08-06T14:12:47;15.73;;;4.82;;
43813;SDS011;29669;55.706;37.656;2023-08-06T14:22:56;8.88;;;4.93;;
43813;SDS011;29669;55.706;37.656;2023-08-06T14:26:43;6.80;;;4.75;;
43813;SDS011;29669;55.706;37.656;2023-08-06T14:29:13;6.28;;;4.80;;
43813;SDS011;29669;55.706;37.656;2023-08-06T14:51:13;5.88;;;4.68;;
43813;SDS011;29669;55.706;37.656;2023-08-06T14:53:40;13.65;;;5.95;;
43813;SDS011;29669;55.706;37.656;2023-08-06T15:00:30;10.63;;;4.95;;
43813;SDS011;29669;55.706;37.656;2023-08-06T15:02:57;7.70;;;5.10;;
43813;SDS011;29669;55.706;37.656;2023-08-06T15:05:24;6.65;;;4.82;;
43813;SDS011;29669;55.706;37.656;2023-08-06T15:07:50;4.93;;;4.50;;
43813;SDS011;29669;55.706;37.656;2023-08-06T15:30:50;4.75;;;3.90;;
43813;SDS011;29669;55.706;37.656;2023-08-06T15:34:16;9.32;;;4.75;;
43813;SDS011;29669;55.706;37.656;2023-08-06T15:41:44;5.28;;;4.78;;
43813;SDS011;29669;55.706;37.656;2023-08-06T15:44:47;9.65;;;4.75;;
43813;SDS011;29669;55.706;37.656;2023-08-06T15:47:39;5.72;;;4.90;;
43813;SDS011;29669;55.706;37.656;2023-08-06T15:51:31;8.60;;;4.50;;
43813;SDS011;29669;55.706;37.656;2023-08-06T16:00:18;6.88;;;4.63;;
43813;SDS011;29669;55.706;37.656;2023-08-06T16:02:47;4.90;;;4.35;;
43813;SDS011;29669;55.706;37.656;2023-08-06T16:36:22;13.38;;;8.32;;
43813;SDS011;29669;55.706;37.656;2023-08-06T16:39:38;8.88;;;5.40;;
43813;SDS011;29669;55.706;37.656;2023-08-06T16:47:17;9.45;;;5.80;;
43813;SDS011;29669;55.706;37.656;2023-08-06T19:52:45;15.80;;;8.07;;
43813;SDS011;29669;55.706;37.656;2023-08-06T19:55:14;22.90;;;8.70;;
43813;SDS011;29669;55.706;37.656;2023-08-06T19:57:47;13.00;;;9.10;;
43813;SDS011;29669;55.706;37.656;2023-08-06T20:00:15;13.50;;;7.65;;
